Observations for MILANO LINATE, Italy (LIML)

LIML 180720Z 08005KT 040V120 CAVOK 26/17 Q1016 NOSIG
LIML 180650Z 07004KT 020V110 CAVOK 25/17 Q1016 NOSIG
LIML 180620Z 05003KT 020V090 CAVOK 24/18 Q1016 NOSIG
LIML 180550Z 08004KT 040V100 CAVOK 24/17 Q1016 NOSIG
LIML 180520Z 07005KT 040V100 9999 FEW070 24/17 Q1016 NOSIG  
LIML 180450Z 05004KT 9999 SCT060 24/17 Q1016 NOSIG  
LIML 180420Z VRB02KT 9999 FEW060 22/17 Q1016 NOSIG  
LIML 180350Z 36005KT 9999 FEW060 21/17 Q1016 NOSIG  
LIML 180250Z 05003KT 9999 FEW060 22/17 Q1015 NOSIG  
LIML 180220Z 03003KT 9999 FEW060 20/17 Q1015 NOSIG  
LIML 180150Z VRB01KT 9999 FEW060 20/17 Q1015 NOSIG  
LIML 180120Z VRB01KT 9999 FEW060 22/17 Q1015 NOSIG  
LIML 180050Z 05003KT 9999 SCT060 23/17 Q1015 NOSIG  
LIML 180020Z VRB01KT 9999 SCT060 22/18 Q1015 NOSIG  
LIML 172350Z 06004KT CAVOK 24/17 Q1016 NOSIG
LIML 172320Z 09004KT CAVOK 24/17 Q1015 NOSIG
LIML 172250Z 10004KT CAVOK 25/17 Q1015 NOSIG
LIML 172220Z 11004KT CAVOK 26/17 Q1015 NOSIG
LIML 172150Z 17002KT CAVOK 24/18 Q1015 NOSIG
LIML 172120Z 14005KT CAVOK 26/17 Q1015 NOSIG
LIML 172050Z 16004KT CAVOK 26/17 Q1015 NOSIG
LIML 172020Z 16005KT CAVOK 27/17 Q1014 NOSIG
LIML 171950Z 14006KT 110V170 CAVOK 28/17 Q1014 NOSIG
LIML 171920Z 14005KT 110V170 CAVOK 28/16 Q1014 NOSIG
LIML 171850Z 16005KT CAVOK 29/15 Q1014 NOSIG
LIML 171820Z 15005KT 110V180 CAVOK 30/14 Q1013 NOSIG
LIML 171750Z 14006KT 080V180 CAVOK 30/14 Q1013 NOSIG
LIML 171720Z 10007KT 060V140 9999 FEW040 31/14 Q1014 NOSIG  
LIML 171650Z 13005KT 030V180 9999 FEW050 31/14 Q1014 NOSIG  
LIML 171620Z 11005KT 040V190 9999 SCT050 31/14 Q1013 NOSIG  
LIML 171550Z 08005KT 010V140 9999 FEW030 31/14 Q1014 NOSIG  
LIML 171520Z 08006KT 040V130 9999 SCT030 31/14 Q1014 NOSIG  
LIML 171450Z 09006KT 020V140 9999 SCT030 31/14 Q1014 NOSIG  
LIML 171420Z 09006KT 030V130 9999 SCT030 31/15 Q1014 NOSIG  
LIML 171350Z VRB05KT 9999 SCT030 30/14 Q1015 NOSIG  
LIML 171320Z VRB04KT 9999 SCT030 31/15 Q1015 NOSIG  
LIML 171250Z VRB04KT 9999 FEW025 30/14 Q1015 NOSIG  
LIML 171220Z 09008KT 060V120 9999 FEW025 31/14 Q1016 NOSIG  
LIML 171150Z 10006KT 030V160 9999 FEW025 30/15 Q1016 NOSIG  
LIML 171120Z 11008KT 030V180 9999 FEW025 30/14 Q1016 NOSIG  
LIML 171050Z 13006KT 070V190 CAVOK 30/15 Q1016 NOSIG
LIML 171020Z 12010KT 090V150 CAVOK 29/15 Q1016 NOSIG
LIML 170950Z 13009KT 090V150 CAVOK 28/15 Q1017 NOSIG
LIML 170920Z 13009KT 100V190 CAVOK 28/16 Q1017 NOSIG
LIML 170820Z 13005KT 070V180 CAVOK 27/16 Q1017 NOSIG
LIML 170750Z 10004KT 020V150 CAVOK 26/16 Q1017 NOSIG
LIML 170720Z 06003KT 340V110 CAVOK 25/16 Q1017 NOSIG
LIML 170650Z VRB02KT CAVOK 23/16 Q1016 NOSIG